createdAt,value
2019-04-20T00:01:12.531Z,31.80
2019-04-20T00:03:43.441Z,31.80
2019-04-20T00:06:17.537Z,31.80
2019-04-20T00:08:58.745Z,31.80
2019-04-20T00:11:31.010Z,31.80
2019-04-20T00:14:03.996Z,31.80
2019-04-20T00:16:29.750Z,31.90
2019-04-20T00:19:03.521Z,31.90
2019-04-20T00:22:03.041Z,31.90
2019-04-20T00:24:37.580Z,31.90
2019-04-20T00:27:32.708Z,31.90
2019-04-20T00:30:03.353Z,31.90
2019-04-20T00:32:29.391Z,32.00
2019-04-20T00:34:52.046Z,31.90
2019-04-20T00:37:25.937Z,32.00
2019-04-20T00:39:57.775Z,32.00
2019-04-20T00:42:36.584Z,32.00
2019-04-20T00:45:09.572Z,32.00
2019-04-20T00:47:47.019Z,32.00
2019-04-20T00:50:25.698Z,32.00
2019-04-20T00:52:54.369Z,32.00
2019-04-20T00:55:14.941Z,32.00
2019-04-20T00:57:51.903Z,32.10
2019-04-20T01:00:37.163Z,32.10
2019-04-20T01:03:07.937Z,32.10
2019-04-20T01:05:54.082Z,32.10
2019-04-20T01:08:14.929Z,32.20
2019-04-20T01:10:52.527Z,32.10
2019-04-20T01:13:26.391Z,32.20
2019-04-20T01:16:03.335Z,32.10
2019-04-20T01:18:28.478Z,32.20
2019-04-20T01:21:07.704Z,32.20
2019-04-20T01:23:40.462Z,32.10
2019-04-20T01:26:11.558Z,32.20
2019-04-20T01:28:54.244Z,32.20
2019-04-20T01:31:22.173Z,32.20
2019-04-20T01:33:55.009Z,32.20
2019-04-20T01:36:37.027Z,32.20
2019-04-20T01:39:07.786Z,32.20
2019-04-20T01:41:28.626Z,32.20
2019-04-20T01:44:00.419Z,32.20
2019-04-20T01:46:33.016Z,32.20
2019-04-20T01:49:09.151Z,32.20
2019-04-20T01:51:47.262Z,32.30
2019-04-20T01:54:27.285Z,32.30
2019-04-20T01:57:03.085Z,32.30
2019-04-20T01:59:44.026Z,32.30
2019-04-20T02:02:24.430Z,32.30
2019-04-20T02:05:07.068Z,32.40
2019-04-20T02:07:40.035Z,32.30
2019-04-20T02:10:08.839Z,32.30
2019-04-20T02:12:40.879Z,32.30
2019-04-20T02:15:26.163Z,32.40
2019-04-20T02:17:59.574Z,32.40
2019-04-20T02:20:38.965Z,32.40
2019-04-20T02:23:09.615Z,32.40
2019-04-20T02:25:27.383Z,32.50
2019-04-20T02:28:14.788Z,32.60
2019-04-20T02:31:06.521Z,32.40
2019-04-20T02:41:44.552Z,32.50
2019-04-20T02:44:28.007Z,32.40
2019-04-20T02:54:26.004Z,32.50
2019-04-20T02:57:10.772Z,32.40
2019-04-20T03:02:00.990Z,32.40
2019-04-20T03:04:25.660Z,32.40
2019-04-20T03:07:04.224Z,32.40
2019-04-20T03:09:47.224Z,32.50
2019-04-20T03:12:23.730Z,32.40
2019-04-20T03:14:42.317Z,32.40
2019-04-20T03:17:31.090Z,32.50
2019-04-20T03:19:52.499Z,32.50
2019-04-20T03:22:59.921Z,32.50
2019-04-20T03:25:19.577Z,32.50
2019-04-20T03:28:10.856Z,32.50
2019-04-20T03:33:44.704Z,32.50
2019-04-20T03:36:09.302Z,32.50
2019-04-20T03:38:30.171Z,32.50
2019-04-20T03:40:54.314Z,32.50
2019-04-20T03:43:15.992Z,32.50
2019-04-20T03:45:57.746Z,32.50
2019-04-20T03:48:41.325Z,32.50
2019-04-20T03:51:23.597Z,32.50
2019-04-20T03:54:08.483Z,32.50
2019-04-20T03:57:02.016Z,32.60
2019-04-20T03:59:43.783Z,32.50
2019-04-20T04:05:16.500Z,32.50
2019-04-20T04:07:38.053Z,32.70
2019-04-20T04:10:18.413Z,32.50
2019-04-20T04:13:22.923Z,32.50
2019-04-20T04:16:04.294Z,32.50
2019-04-20T04:18:38.635Z,32.50
2019-04-20T04:21:11.494Z,32.60
2019-04-20T04:23:56.164Z,32.60
2019-04-20T04:26:30.096Z,32.50
2019-04-20T04:29:13.675Z,32.50
2019-04-20T04:32:00.356Z,32.50
2019-04-20T04:34:20.643Z,32.50
2019-04-20T04:36:57.944Z,32.50
2019-04-20T04:39:30.709Z,32.50
2019-04-20T04:42:14.630Z,32.60
2019-04-20T04:44:35.734Z,32.50
2019-04-20T04:46:58.513Z,32.60
2019-04-20T04:49:31.976Z,32.60
2019-04-20T04:52:05.414Z,32.60
2019-04-20T04:54:43.532Z,32.50
2019-04-20T04:57:09.383Z,32.50
2019-04-20T04:59:40.381Z,32.60
2019-04-20T05:02:13.848Z,32.50
2019-04-20T05:05:18.007Z,32.50
2019-04-20T05:07:49.593Z,32.50
2019-04-20T05:10:09.706Z,32.50
2019-04-20T05:12:44.003Z,32.50
2019-04-20T05:15:29.713Z,32.50
2019-04-20T05:18:06.801Z,32.60
2019-04-20T05:20:48.225Z,33.20
2019-04-20T05:23:34.155Z,32.50
2019-04-20T05:26:36.076Z,32.50
2019-04-20T05:29:02.516Z,32.70
2019-04-20T05:31:36.540Z,32.60
2019-04-20T05:34:27.502Z,32.60
2019-04-20T05:36:57.405Z,32.60
2019-04-20T05:39:32.653Z,32.60
2019-04-20T05:42:13.285Z,32.60
2019-04-20T05:45:41.620Z,32.70
2019-04-20T05:48:27.339Z,32.90
2019-04-20T05:51:01.511Z,32.90
2019-04-20T05:53:42.657Z,32.90
2019-04-20T05:56:17.281Z,33.00
2019-04-20T05:58:56.829Z,32.90
2019-04-20T06:01:37.976Z,32.80
2019-04-20T06:04:09.532Z,32.80
2019-04-20T06:06:55.417Z,32.80
2019-04-20T06:09:34.300Z,32.70
2019-04-20T06:12:12.950Z,32.70
2019-04-20T06:15:22.385Z,33.40
2019-04-20T06:18:29.910Z,32.80
2019-04-20T06:21:16.234Z,32.70
2019-04-20T06:23:50.878Z,32.70
2019-04-20T06:26:36.939Z,32.70
2019-04-20T06:28:46.701Z,32.70
2019-04-20T06:31:30.104Z,32.80
2019-04-20T06:37:01.996Z,32.70
2019-04-20T06:39:37.072Z,32.70
2019-04-20T06:42:14.863Z,32.60
2019-04-20T06:45:44.790Z,32.70
2019-04-20T06:48:20.486Z,32.70
2019-04-20T06:50:38.749Z,32.70
2019-04-20T06:53:45.005Z,32.70
2019-04-20T06:56:45.868Z,32.70
2019-04-20T06:59:26.499Z,32.60
2019-04-20T07:01:56.829Z,32.70
2019-04-20T07:04:38.741Z,32.70
2019-04-20T07:07:03.722Z,32.80
2019-04-20T07:09:49.571Z,32.80
2019-04-20T07:12:12.857Z,32.90
2019-04-20T07:14:39.083Z,33.00
2019-04-20T07:17:33.365Z,33.00
2019-04-20T07:20:04.108Z,33.00
2019-04-20T07:22:55.950Z,33.00
2019-04-20T07:25:29.288Z,33.00
2019-04-20T07:28:02.229Z,33.00
2019-04-20T07:30:35.419Z,33.20
2019-04-20T07:33:09.083Z,33.10
2019-04-20T07:35:49.254Z,33.20
2019-04-20T07:38:40.328Z,33.60
2019-04-20T07:40:55.274Z,33.30
2019-04-20T07:43:26.888Z,33.20
2019-04-20T07:46:04.925Z,33.40
2019-04-20T07:48:39.605Z,33.30
2019-04-20T07:51:04.925Z,33.30
2019-04-20T07:53:40.358Z,33.30
2019-04-20T07:56:23.631Z,33.20
2019-04-20T07:58:50.932Z,33.20
2019-04-20T08:02:08.512Z,33.10
2019-04-20T08:04:47.706Z,33.10
2019-04-20T08:07:09.598Z,33.30
2019-04-20T08:09:51.300Z,33.40
2019-04-20T08:12:51.607Z,33.40
2019-04-20T08:15:32.262Z,33.40
2019-04-20T08:17:56.870Z,33.50
2019-04-20T08:20:27.876Z,33.70
2019-04-20T08:23:12.852Z,33.60
2019-04-20T08:25:32.781Z,33.80
2019-04-20T08:28:24.993Z,33.80
2019-04-20T08:31:56.305Z,33.90
2019-04-20T08:34:41.608Z,33.90
2019-04-20T08:37:11.081Z,34.00
2019-04-20T08:40:07.240Z,34.10
2019-04-20T08:42:52.484Z,34.10
2019-04-20T08:45:41.731Z,34.20
2019-04-20T08:48:25.450Z,34.40
2019-04-20T08:50:50.777Z,34.40
2019-04-20T08:53:28.863Z,34.20
2019-04-20T08:55:55.792Z,34.40
2019-04-20T08:58:15.981Z,34.40
2019-04-20T09:00:53.584Z,34.40
2019-04-20T09:03:27.601Z,34.30
2019-04-20T09:06:06.440Z,34.30
2019-04-20T09:08:44.810Z,34.30
2019-04-20T09:11:19.453Z,34.40
2019-04-20T09:13:45.474Z,34.30
2019-04-20T09:16:10.854Z,34.20
2019-04-20T09:18:52.483Z,34.30
2019-04-20T09:21:30.773Z,34.10
2019-04-20T09:24:17.156Z,34.10
2019-04-20T09:26:43.324Z,34.20
2019-04-20T09:29:06.894Z,34.10
2019-04-20T09:31:50.235Z,34.10
2019-04-20T09:34:59.994Z,34.20
2019-04-20T09:37:43.402Z,34.10
2019-04-20T09:40:32.223Z,34.10
2019-04-20T09:42:49.987Z,34.20
2019-04-20T09:45:39.068Z,34.10
2019-04-20T09:48:15.731Z,34.20
2019-04-20T09:50:57.499Z,34.40
2019-04-20T09:53:29.492Z,34.20
2019-04-20T09:56:14.620Z,34.20
2019-04-20T09:59:09.564Z,34.80
2019-04-20T10:01:31.067Z,34.20
2019-04-20T10:03:55.473Z,34.10
2019-04-20T10:06:33.896Z,34.20
2019-04-20T10:09:05.069Z,34.10
2019-04-20T10:11:45.087Z,34.00
2019-04-20T10:14:16.643Z,33.90
2019-04-20T10:16:55.958Z,33.80
2019-04-20T10:19:37.654Z,34.40
2019-04-20T10:22:08.883Z,33.80
2019-04-20T10:24:42.450Z,33.90
2019-04-20T10:27:20.961Z,33.90
2019-04-20T10:29:53.463Z,33.90
2019-04-20T10:32:38.925Z,33.90
2019-04-20T10:35:06.567Z,33.90
2019-04-20T10:37:45.145Z,33.90
2019-04-20T10:40:29.569Z,33.90
2019-04-20T10:43:01.177Z,33.90
2019-04-20T10:45:29.159Z,33.80
2019-04-20T10:48:03.342Z,33.10
2019-04-20T10:50:34.769Z,33.80
2019-04-20T10:53:12.122Z,33.90
2019-04-20T10:55:44.917Z,33.80
2019-04-20T10:58:23.130Z,33.80
2019-04-20T11:00:53.585Z,33.80
2019-04-20T11:03:24.893Z,33.80
2019-04-20T11:05:56.202Z,33.80
2019-04-20T11:08:28.736Z,33.80
2019-04-20T11:11:09.307Z,33.80
2019-04-20T11:13:31.544Z,33.70
2019-04-20T11:16:04.301Z,33.70
2019-04-20T11:18:39.733Z,33.70
2019-04-20T11:21:13.812Z,33.80
2019-04-20T11:23:46.924Z,33.80
2019-04-20T11:26:24.304Z,33.70
2019-04-20T11:28:59.997Z,33.60
2019-04-20T11:31:37.198Z,33.30
2019-04-20T11:34:05.764Z,33.90
2019-04-20T11:36:39.266Z,33.40
2019-04-20T11:39:14.758Z,32.70
2019-04-20T11:41:45.707Z,32.70
2019-04-20T11:44:17.792Z,32.50
2019-04-20T11:46:50.839Z,32.20
2019-04-20T11:49:23.545Z,32.10
2019-04-20T11:51:55.300Z,32.20
2019-04-20T11:54:30.423Z,32.20
2019-04-20T11:57:01.604Z,31.90
2019-04-20T11:59:35.407Z,31.70
2019-04-20T12:02:25.353Z,31.30
2019-04-20T12:05:10.063Z,31.40
2019-04-20T12:07:32.206Z,31.50
2019-04-20T12:10:10.045Z,31.10
2019-04-20T12:12:50.254Z,31.10
2019-04-20T12:15:22.432Z,31.30
2019-04-20T12:17:53.639Z,31.60
2019-04-20T12:20:26.950Z,32.00
2019-04-20T12:22:58.147Z,31.40
2019-04-20T12:25:37.891Z,31.10
2019-04-20T12:28:09.571Z,31.10
2019-04-20T12:30:41.805Z,31.10
2019-04-20T12:33:13.464Z,31.10
2019-04-20T12:35:45.163Z,30.90
2019-04-20T12:38:16.944Z,31.00
2019-04-20T12:40:50.243Z,30.90
2019-04-20T12:43:20.737Z,30.80
2019-04-20T12:45:51.758Z,30.80
2019-04-20T12:48:23.779Z,30.80
2019-04-20T12:50:57.471Z,30.70
2019-04-20T12:53:32.944Z,30.40
2019-04-20T12:56:04.411Z,30.30
2019-04-20T12:58:34.985Z,30.30
2019-04-20T13:01:07.663Z,30.30
2019-04-20T13:03:41.768Z,30.40
2019-04-20T13:06:17.939Z,30.50
2019-04-20T13:08:54.818Z,30.80
2019-04-20T13:11:46.249Z,30.60
2019-04-20T13:14:40.148Z,30.10
2019-04-20T13:17:12.414Z,30.00
2019-04-20T13:19:45.078Z,30.20
2019-04-20T13:22:18.929Z,29.90
2019-04-20T13:24:52.810Z,29.60
2019-04-20T13:27:24.962Z,29.20
2019-04-20T13:29:56.295Z,29.60
2019-04-20T13:32:27.683Z,29.40
2019-04-20T13:35:04.592Z,29.90
2019-04-20T13:37:38.063Z,28.90
2019-04-20T13:40:09.042Z,28.90
2019-04-20T13:42:45.670Z,29.00
2019-04-20T13:45:26.674Z,28.90
2019-04-20T13:48:04.437Z,28.90
2019-04-20T13:50:42.305Z,28.70
2019-04-20T13:53:17.015Z,28.70
2019-04-20T13:55:51.948Z,28.70
2019-04-20T13:58:59.736Z,28.50
2019-04-20T14:02:02.557Z,28.50
2019-04-20T14:04:46.558Z,28.50
2019-04-20T14:07:19.111Z,28.40
2019-04-20T14:09:51.430Z,28.40
2019-04-20T14:12:29.812Z,28.30
2019-04-20T14:14:59.475Z,28.40
2019-04-20T14:17:35.096Z,28.30
2019-04-20T14:20:11.416Z,28.30
2019-04-20T14:22:41.004Z,28.30
2019-04-20T14:25:13.205Z,28.30
2019-04-20T14:27:50.664Z,28.20
2019-04-20T14:30:24.813Z,28.30
2019-04-20T14:32:58.814Z,28.20
2019-04-20T14:35:30.322Z,28.20
2019-04-20T14:38:01.710Z,28.20
2019-04-20T14:40:36.695Z,28.20
2019-04-20T14:43:08.903Z,28.20
2019-04-20T14:45:42.829Z,28.20
2019-04-20T14:48:14.337Z,28.10
2019-04-20T14:50:45.658Z,28.10
2019-04-20T14:53:17.709Z,28.20
2019-04-20T14:55:49.866Z,28.10
2019-04-20T14:58:57.623Z,28.20
2019-04-20T15:01:38.608Z,28.20
2019-04-20T15:04:16.520Z,28.20
2019-04-20T15:06:44.381Z,28.20
2019-04-20T15:09:16.824Z,28.30
2019-04-20T15:11:48.473Z,28.30
2019-04-20T15:14:24.849Z,28.90
2019-04-20T15:16:58.438Z,28.30
2019-04-20T15:19:43.502Z,28.40
2019-04-20T15:22:31.811Z,28.40
2019-04-20T15:25:05.419Z,28.30
2019-04-20T15:27:37.510Z,28.30
2019-04-20T15:30:09.177Z,28.30
2019-04-20T15:32:40.928Z,28.40
2019-04-20T15:35:18.985Z,28.40
2019-04-20T15:37:49.149Z,28.60
2019-04-20T15:40:21.206Z,28.60
2019-04-20T15:43:01.011Z,28.60
2019-04-20T15:45:25.299Z,28.60
2019-04-20T15:47:59.536Z,28.60
2019-04-20T15:50:31.756Z,28.70
2019-04-20T15:53:07.971Z,28.80
2019-04-20T15:55:41.380Z,29.10
2019-04-20T15:58:12.310Z,28.90
2019-04-20T16:00:47.915Z,29.10
2019-04-20T16:03:27.623Z,29.10
2019-04-20T16:06:07.446Z,29.30
2019-04-20T16:08:44.050Z,29.30
2019-04-20T16:11:15.345Z,29.40
2019-04-20T16:13:53.873Z,29.50
2019-04-20T16:16:25.689Z,29.50
2019-04-20T16:19:05.683Z,29.60
2019-04-20T16:21:39.568Z,29.60
2019-04-20T16:24:18.858Z,29.60
2019-04-20T16:27:31.789Z,29.70
2019-04-20T16:30:05.588Z,29.70
2019-04-20T16:32:36.979Z,29.80
2019-04-20T16:35:14.508Z,29.80
2019-04-20T16:37:46.921Z,29.90
2019-04-20T16:40:23.300Z,29.90
2019-04-20T16:42:56.640Z,29.90
2019-04-20T16:45:29.456Z,30.00
2019-04-20T16:48:04.703Z,30.00
2019-04-20T16:50:37.063Z,29.90
2019-04-20T16:53:12.718Z,30.00
2019-04-20T16:55:45.351Z,30.00
2019-04-20T16:58:17.760Z,30.00
2019-04-20T17:00:56.520Z,30.00
2019-04-20T17:03:44.490Z,30.00
2019-04-20T17:06:08.566Z,30.00
2019-04-20T17:08:41.601Z,30.10
2019-04-20T17:11:16.057Z,30.00
2019-04-20T17:13:53.052Z,30.00
2019-04-20T17:16:21.906Z,30.10
2019-04-20T17:18:55.324Z,30.20
2019-04-20T17:21:28.546Z,30.10
2019-04-20T17:23:57.789Z,30.30
2019-04-20T17:26:45.226Z,30.30
2019-04-20T17:29:22.099Z,30.40
2019-04-20T17:32:05.365Z,30.40
2019-04-20T17:34:53.315Z,30.40
2019-04-20T17:37:12.866Z,30.80
2019-04-20T17:40:09.156Z,30.50
2019-04-20T17:42:30.223Z,30.50
2019-04-20T17:45:00.833Z,31.20
2019-04-20T17:47:44.152Z,30.60
2019-04-20T17:50:18.880Z,30.60
2019-04-20T17:52:49.590Z,30.70
2019-04-20T17:55:24.696Z,30.70
2019-04-20T17:57:47.050Z,30.80
2019-04-20T18:00:42.604Z,30.70
2019-04-20T18:03:38.069Z,30.80
2019-04-20T18:06:08.330Z,30.70
2019-04-20T18:08:43.262Z,30.80
2019-04-20T18:11:05.716Z,30.80
2019-04-20T18:13:34.114Z,30.90
2019-04-20T18:16:30.207Z,30.90
2019-04-20T18:19:04.125Z,30.90
2019-04-20T18:21:41.578Z,30.70
2019-04-20T18:24:20.402Z,31.00
2019-04-20T18:27:05.585Z,31.00
2019-04-20T18:29:37.366Z,31.00
2019-04-20T18:32:11.375Z,30.90
2019-04-20T18:34:52.953Z,31.10
2019-04-20T18:37:22.023Z,31.10
2019-04-20T18:40:03.836Z,31.00
2019-04-20T18:42:36.188Z,31.10
2019-04-20T18:45:21.672Z,31.10
2019-04-20T18:47:56.345Z,31.10
2019-04-20T18:50:17.415Z,31.10
2019-04-20T18:52:42.162Z,31.10
2019-04-20T18:55:19.454Z,31.10
2019-04-20T18:57:49.289Z,31.10
2019-04-20T19:00:26.862Z,31.20
2019-04-20T19:02:57.674Z,31.20
2019-04-20T19:05:27.462Z,31.20
2019-04-20T19:08:06.734Z,31.20
2019-04-20T19:10:41.519Z,31.20
2019-04-20T19:13:23.789Z,31.30
2019-04-20T19:16:15.233Z,31.20
2019-04-20T19:18:53.558Z,31.30
2019-04-20T19:21:15.303Z,31.30
2019-04-20T19:23:56.233Z,31.30
2019-04-20T19:26:22.869Z,31.40
2019-04-20T19:28:56.463Z,31.40
2019-04-20T19:31:42.719Z,31.40
2019-04-20T19:34:18.772Z,31.40
2019-04-20T19:36:42.460Z,31.50
2019-04-20T19:39:28.268Z,32.10
2019-04-20T19:41:53.989Z,31.50
2019-04-20T19:44:27.515Z,31.50
2019-04-20T19:47:15.435Z,31.50
2019-04-20T19:49:39.394Z,31.50
2019-04-20T19:52:30.895Z,32.10
2019-04-20T19:54:54.902Z,31.60
2019-04-20T19:57:34.748Z,32.00
2019-04-20T19:59:50.207Z,32.10
2019-04-20T20:02:18.091Z,32.10
2019-04-20T20:05:00.351Z,32.00
2019-04-20T20:07:33.862Z,32.00
2019-04-20T20:10:03.501Z,32.00
2019-04-20T20:12:35.679Z,32.00
2019-04-20T20:15:15.817Z,31.90
2019-04-20T20:18:07.186Z,31.90
2019-04-20T20:20:41.128Z,32.00
2019-04-20T20:22:58.252Z,32.00
2019-04-20T20:25:37.126Z,32.20
2019-04-20T20:28:20.206Z,32.00
2019-04-20T20:30:55.074Z,32.10
2019-04-20T20:33:27.851Z,32.00
2019-04-20T20:36:01.989Z,32.00
2019-04-20T20:38:33.957Z,32.10
2019-04-20T20:41:10.326Z,32.70
2019-04-20T20:43:47.416Z,32.10
2019-04-20T20:46:19.823Z,32.10
2019-04-20T20:49:06.235Z,32.10
2019-04-20T20:51:44.044Z,32.10
2019-04-20T20:54:04.553Z,32.20
2019-04-20T20:56:34.120Z,32.20
2019-04-20T20:59:11.274Z,32.20
2019-04-20T21:01:44.292Z,32.20
2019-04-20T21:04:09.765Z,32.20
2019-04-20T21:06:48.674Z,32.20
2019-04-20T21:09:25.437Z,32.20
2019-04-20T21:12:00.695Z,32.70
2019-04-20T21:14:31.526Z,32.30
2019-04-20T21:17:08.134Z,32.30
2019-04-20T21:19:55.006Z,32.30
2019-04-20T21:22:15.155Z,32.30
2019-04-20T21:24:49.797Z,32.40
2019-04-20T21:27:22.003Z,32.50
2019-04-20T21:29:56.058Z,32.40
2019-04-20T21:32:23.856Z,32.40
2019-04-20T21:35:01.520Z,32.40
2019-04-20T21:37:30.588Z,32.40
2019-04-20T21:40:16.712Z,32.50
2019-04-20T21:42:44.373Z,32.50
2019-04-20T21:45:19.996Z,32.50
2019-04-20T21:47:46.496Z,32.50
2019-04-20T21:50:34.660Z,32.50
2019-04-20T21:52:54.011Z,32.50
2019-04-20T21:55:25.941Z,32.50
2019-04-20T21:58:00.016Z,32.50
2019-04-20T22:00:50.118Z,32.50
2019-04-20T22:03:20.403Z,32.60
2019-04-20T22:05:56.159Z,32.40
2019-04-20T22:08:26.714Z,32.40
2019-04-20T22:11:01.761Z,32.40
2019-04-20T22:13:38.071Z,32.50
2019-04-20T22:16:12.528Z,33.20
2019-04-20T22:18:54.114Z,32.40
2019-04-20T22:21:26.666Z,32.50
2019-04-20T22:24:06.261Z,32.50
2019-04-20T22:26:34.496Z,32.50
2019-04-20T22:29:00.438Z,32.50
2019-04-20T22:31:34.023Z,32.50
2019-04-20T22:34:07.681Z,32.50
2019-04-20T22:36:46.434Z,32.50
2019-04-20T22:39:23.564Z,32.50
2019-04-20T22:42:00.158Z,32.50
2019-04-20T22:44:30.392Z,32.50
2019-04-20T22:47:00.494Z,32.50
2019-04-20T22:49:50.010Z,32.50
2019-04-20T22:52:23.327Z,32.50
2019-04-20T22:54:55.141Z,32.50
2019-04-20T22:57:30.349Z,32.50
2019-04-20T23:00:01.893Z,32.50
2019-04-20T23:02:24.762Z,32.50
2019-04-20T23:04:55.131Z,32.50
2019-04-20T23:07:26.425Z,32.50
2019-04-20T23:10:03.264Z,32.50
2019-04-20T23:12:35.653Z,32.50
2019-04-20T23:15:10.209Z,32.50
2019-04-20T23:17:43.629Z,32.50
2019-04-20T23:20:17.249Z,32.60
2019-04-20T23:22:49.023Z,32.50
2019-04-20T23:25:17.446Z,32.50
2019-04-20T23:27:51.224Z,32.50
2019-04-20T23:30:26.098Z,32.50
2019-04-20T23:32:54.079Z,32.60
2019-04-20T23:35:26.663Z,32.50
2019-04-20T23:38:02.867Z,32.60
2019-04-20T23:40:32.262Z,32.50
2019-04-20T23:43:18.513Z,32.60
2019-04-20T23:46:19.357Z,32.60
2019-04-20T23:48:50.086Z,32.60
2019-04-20T23:51:40.625Z,32.60
2019-04-20T23:54:05.057Z,32.70
2019-04-20T23:56:27.916Z,32.60
2019-04-20T23:58:59.792Z,32.60
